• Join FlightAware (Why Join?)
  • Login
  • US Flag 
05:45AM EDT


 

Airport Tracker/Info


-or-


 

Live Flight TrackerFlight Track Log ✈ ASQ6137 ✈ 29-Apr-2013 ✈ KORD - KGRR

Flight Track Log - Related Links

Times and Time Zones

All times are in EDT time to prevent confusion due to time zone crossing. See the ASQ6137 flight status page for this flight to view local times or setup timezone preferences in your user account.

Time Position Orientation Groundspeed Altitude Reporting Facility
EDT Latitude Longitude Course Direction KTS MPH feet Rate Location/Type
08:44AM 42.0000 -87.9500 65° Northeast 175 201 2,100  Level Chicago TRACON
08:45AM 42.0500 -87.9000 37° Northeast 239 275 3,800 1,920 Climbing Chicago TRACON
08:46AM 42.0833 -87.8167 62° Northeast 273 314 6,000 2,220 Climbing Chicago TRACON
08:47AM 42.0947 -87.5522 65° Northeast  Level FlightAware Approximate
08:47AM 42.0833 -87.7167 90° East 271 312 8,300  Level Chicago TRACON
08:48AM 42.1260 -87.4615 65° Northeast  Level FlightAware Approximate
08:48AM 42.1167 -87.6333 62° Northeast 290 334 9,800  Level Chicago TRACON
08:49AM 42.1572 -87.3708 65° Northeast  Level FlightAware Approximate
08:49AM 42.1267 -87.5239 83° East 311 358 10,000  Level Chicago Center
08:50AM 42.1294 -87.3894 88° East 354 407 10,000  Level Chicago Center
08:51AM 42.1319 -87.2486 89° East 373 429 10,000  Level Chicago Center
08:52AM 42.1364 -87.0789 88° East 378 435 10,000  Level Chicago Center
08:53AM 42.1403 -86.9411 88° East 371 427 10,000  Level Chicago Center
08:54AM 42.1925 -86.8300 58° Northeast 355 409 10,000  Level Chicago Center
08:55AM 42.2497 -86.7231 54° Northeast 353 406 10,000  Level Chicago Center
08:56AM 42.3122 -86.6069 54° Northeast 354 407 10,000  Level Chicago Center
08:57AM 42.3683 -86.5006 54° Northeast 351 404 10,000  Level Chicago Center
08:58AM 42.4244 -86.3950 54° Northeast 348 400 10,000  Level Chicago Center
08:59AM 42.4806 -86.2889 54° Northeast 347 399 10,000 -180 Level Chicago Center
09:00AM 42.5300 -86.1939 55° Northeast 307 353 9,700 -780 Descending Chicago Center
09:01AM 42.5836 -86.0947 54° Northeast 274 315 8,500 -1,320 Descending Chicago Center
09:02AM 42.6361 -86.0292 43° Northeast 262 302 7,000 -1,500 Descending Chicago Center
09:03AM 42.6922 -85.9694 38° Northeast 258 297 5,500 -1,260 Descending Chicago Center
09:04AM 42.7386 -85.9006 47° Northeast 264 304 4,500 -1,020 Descending Chicago Center
09:05AM 42.7500 -85.8014 81° East 268 308 3,500 -780 Descending Chicago Center
09:06AM 42.7597 -85.7044 82° East 266 306 3,000 -300 Descending Chicago Center
09:07AM 42.7706 -85.6028 82° East 236 272 3,000 -120 Level Chicago Center
09:08AM 42.7794 -85.5183 82° East 228 262 2,800 -180 Descending Chicago Center
09:09AM 42.7894 -85.4325 81° East 230 265 2,700 -60 Descending Chicago Center
09:11AM 42.8136 -85.3567 66° East 222 255 2,700  Level Chicago Center
09:12AM 42.8472 -85.2892 56° Northeast 228 262 2,700  Level Chicago Center
09:13AM 42.8981 -85.3044 348° North 204 235 2,700  Level Chicago Center
09:14AM 42.8936 -85.3819 266° West 180 207 2,700  Level Chicago Center